createdAt,value
2023-01-30T00:00:31.588Z,1009.78
2023-01-30T00:01:31.585Z,1009.63
2023-01-30T00:02:31.577Z,1009.60
2023-01-30T00:03:31.565Z,1009.49
2023-01-30T00:04:31.554Z,1009.53
2023-01-30T00:05:31.532Z,1009.50
2023-01-30T00:06:31.522Z,1009.49
2023-01-30T00:07:31.518Z,1009.49
2023-01-30T00:08:31.492Z,1009.42
2023-01-30T00:09:31.501Z,1009.39
2023-01-30T00:10:31.485Z,1009.40
2023-01-30T00:11:31.462Z,1009.36
2023-01-30T00:12:31.492Z,1009.33
2023-01-30T00:13:31.473Z,1009.24
2023-01-30T00:14:31.458Z,1009.23
2023-01-30T00:15:31.426Z,1009.26
2023-01-30T00:16:31.433Z,1009.19
2023-01-30T00:17:31.408Z,1009.18
2023-01-30T00:18:31.389Z,1009.10
2023-01-30T00:19:31.399Z,1009.26
2023-01-30T00:20:31.385Z,1009.18
2023-01-30T00:21:31.367Z,1009.20
2023-01-30T00:22:31.367Z,1009.14
2023-01-30T00:23:31.338Z,1009.06
2023-01-30T00:24:31.496Z,1009.11
2023-01-30T00:25:31.634Z,1009.05
2023-01-30T00:26:31.357Z,1009.03
2023-01-30T00:27:31.309Z,1008.98
2023-01-30T00:28:31.301Z,1008.82
2023-01-30T00:29:31.278Z,1008.78
2023-01-30T00:30:31.324Z,1008.77
2023-01-30T00:31:31.330Z,1008.75
2023-01-30T00:32:31.243Z,1008.68
2023-01-30T00:33:31.231Z,1008.71
2023-01-30T00:34:31.233Z,1008.60
2023-01-30T00:35:31.224Z,1008.50
2023-01-30T00:36:31.215Z,1008.52
2023-01-30T00:37:31.215Z,1008.47
2023-01-30T00:38:31.180Z,1008.35
2023-01-30T00:39:31.194Z,1008.31
2023-01-30T00:40:31.243Z,1008.21
2023-01-30T00:41:31.162Z,1008.21
2023-01-30T00:42:31.139Z,1008.17
2023-01-30T00:43:31.145Z,1008.06
2023-01-30T00:44:31.125Z,1008.02
2023-01-30T00:45:31.156Z,1007.99
2023-01-30T00:46:31.096Z,1007.96
2023-01-30T00:47:31.086Z,1008.00
2023-01-30T00:48:31.093Z,1007.99
2023-01-30T00:49:31.961Z,1007.96
2023-01-30T00:50:31.055Z,1008.02
2023-01-30T00:51:31.059Z,1008.01
2023-01-30T00:52:31.031Z,1007.99
2023-01-30T00:53:31.036Z,1007.79
2023-01-30T00:54:31.014Z,1007.84
2023-01-30T00:55:31.018Z,1007.95
2023-01-30T00:56:30.994Z,1007.93
2023-01-30T00:57:30.999Z,1007.75
2023-01-30T00:58:30.978Z,1007.89
2023-01-30T00:59:30.989Z,1007.82
2023-01-30T01:00:30.967Z,1007.74
2023-01-30T01:01:30.937Z,1007.80
2023-01-30T01:02:30.924Z,1007.76
2023-01-30T01:03:30.926Z,1007.64
2023-01-30T01:04:30.924Z,1007.69
2023-01-30T01:05:30.921Z,1007.64
2023-01-30T01:06:30.905Z,1007.58
2023-01-30T01:07:30.881Z,1007.37
2023-01-30T01:08:30.876Z,1007.49
2023-01-30T01:09:30.854Z,1007.50
2023-01-30T01:10:30.852Z,1007.44
2023-01-30T01:11:30.831Z,1007.28
2023-01-30T01:12:30.825Z,1007.10
2023-01-30T01:13:30.820Z,1007.18
2023-01-30T01:14:30.821Z,1007.17
2023-01-30T01:15:30.793Z,1007.20
2023-01-30T01:16:30.836Z,1007.22
2023-01-30T01:17:30.781Z,1007.17
2023-01-30T01:18:30.765Z,1007.16
2023-01-30T01:19:30.752Z,1007.20
2023-01-30T01:20:30.752Z,1007.12
2023-01-30T01:21:30.739Z,1007.16
2023-01-30T01:22:30.721Z,1007.05
2023-01-30T01:23:30.704Z,1007.07
2023-01-30T01:24:30.703Z,1007.00
2023-01-30T01:25:30.699Z,1006.95
2023-01-30T01:26:30.718Z,1006.91
2023-01-30T01:27:30.679Z,1006.92
2023-01-30T01:28:30.655Z,1006.97
2023-01-30T01:29:30.657Z,1006.95
2023-01-30T01:30:30.632Z,1006.97
2023-01-30T01:31:30.723Z,1006.98
2023-01-30T01:32:30.620Z,1007.04
2023-01-30T01:33:30.609Z,1007.13
2023-01-30T01:34:30.596Z,1007.15
2023-01-30T01:35:30.589Z,1007.19
2023-01-30T01:36:55.480Z,1007.18
2023-01-30T01:37:31.562Z,1007.13
2023-01-30T01:38:30.576Z,1007.18
2023-01-30T01:39:30.569Z,1007.18
2023-01-30T01:40:30.545Z,1007.13
2023-01-30T01:41:30.529Z,1007.14
2023-01-30T01:42:30.506Z,1007.17
2023-01-30T01:43:30.504Z,1007.20
2023-01-30T01:44:30.493Z,1007.18
2023-01-30T01:45:30.472Z,1007.12
2023-01-30T01:46:30.505Z,1007.14
2023-01-30T01:47:30.474Z,1007.19
2023-01-30T01:48:30.439Z,1007.12
2023-01-30T01:49:30.447Z,1007.06
2023-01-30T01:50:30.428Z,1007.04
2023-01-30T01:51:30.422Z,1006.93
2023-01-30T01:52:30.419Z,1006.88
2023-01-30T01:53:30.404Z,1006.83
2023-01-30T01:54:30.379Z,1006.76
2023-01-30T01:55:30.391Z,1006.77
2023-01-30T01:56:30.369Z,1006.66
2023-01-30T01:57:30.366Z,1006.57
2023-01-30T01:58:30.344Z,1006.50
2023-01-30T01:59:30.341Z,1006.53
2023-01-30T02:00:30.333Z,1006.53
2023-01-30T02:01:30.386Z,1006.50
2023-01-30T02:02:30.350Z,1006.45
2023-01-30T02:03:30.299Z,1006.43
2023-01-30T02:04:30.273Z,1006.41
2023-01-30T02:05:30.260Z,1006.47
2023-01-30T02:06:30.271Z,1006.36
2023-01-30T02:07:30.262Z,1006.35
2023-01-30T02:08:30.238Z,1006.30
2023-01-30T02:09:30.224Z,1006.22
2023-01-30T02:10:30.232Z,1006.19
2023-01-30T02:11:30.211Z,1006.16
2023-01-30T02:12:30.209Z,1006.17
2023-01-30T02:13:30.206Z,1006.08
2023-01-30T02:14:30.169Z,1006.07
2023-01-30T02:15:30.166Z,1006.01
2023-01-30T02:16:30.158Z,1006.10
2023-01-30T02:17:30.216Z,1006.00
2023-01-30T02:18:30.137Z,1005.89
2023-01-30T02:19:30.118Z,1005.96
2023-01-30T02:20:30.119Z,1005.85
2023-01-30T02:21:30.113Z,1005.92
2023-01-30T02:22:30.091Z,1005.84
2023-01-30T02:23:30.079Z,1005.85
2023-01-30T02:24:30.074Z,1005.82
2023-01-30T02:25:30.047Z,1005.78
2023-01-30T02:26:30.103Z,1005.90
2023-01-30T02:27:30.047Z,1005.91
2023-01-30T02:28:30.020Z,1005.82
2023-01-30T02:29:30.027Z,1005.81
2023-01-30T02:30:30.141Z,1005.67
2023-01-30T02:31:30.130Z,1005.71
2023-01-30T02:32:29.988Z,1005.73
2023-01-30T02:33:29.977Z,1005.72
2023-01-30T02:34:29.966Z,1005.64
2023-01-30T02:35:29.959Z,1005.54
2023-01-30T02:36:29.941Z,1005.55
2023-01-30T02:37:29.929Z,1005.52
2023-01-30T02:38:29.939Z,1005.48
2023-01-30T02:39:29.921Z,1005.46
2023-01-30T02:40:29.904Z,1005.42
2023-01-30T02:41:29.884Z,1005.42
2023-01-30T02:42:29.889Z,1005.35
2023-01-30T02:43:29.876Z,1005.30
2023-01-30T02:44:29.857Z,1005.32
2023-01-30T02:45:29.862Z,1005.39
2023-01-30T02:46:29.831Z,1005.24
2023-01-30T02:47:29.821Z,1005.25
2023-01-30T02:48:29.818Z,1005.29
2023-01-30T02:49:29.807Z,1005.20
2023-01-30T02:50:29.808Z,1005.15
2023-01-30T02:51:29.826Z,1005.13
2023-01-30T02:52:29.773Z,1005.02
2023-01-30T02:53:29.769Z,1005.06
2023-01-30T02:54:29.754Z,1005.04
2023-01-30T02:55:29.754Z,1005.05
2023-01-30T02:56:29.738Z,1004.97
2023-01-30T02:57:29.733Z,1004.97
2023-01-30T02:58:29.712Z,1004.96
2023-01-30T02:59:29.697Z,1004.96
2023-01-30T03:00:29.687Z,1004.84
2023-01-30T03:01:29.709Z,1004.86
2023-01-30T03:02:29.747Z,1004.96
2023-01-30T03:03:29.660Z,1004.74
2023-01-30T03:04:29.650Z,1004.80
2023-01-30T03:05:29.648Z,1004.80
2023-01-30T03:06:29.643Z,1004.78
2023-01-30T03:07:29.647Z,1004.76
2023-01-30T03:08:29.601Z,1004.84
2023-01-30T03:09:29.596Z,1004.75
2023-01-30T03:10:29.598Z,1004.68
2023-01-30T03:11:29.573Z,1004.73
2023-01-30T03:12:29.567Z,1004.76
2023-01-30T03:13:29.546Z,1004.75
2023-01-30T03:14:29.545Z,1004.68
2023-01-30T03:15:29.550Z,1004.67
2023-01-30T03:16:29.542Z,1004.60
2023-01-30T03:17:29.525Z,1004.67
2023-01-30T03:18:29.498Z,1004.65
2023-01-30T03:19:29.483Z,1004.72
2023-01-30T03:20:29.483Z,1004.71
2023-01-30T03:21:29.478Z,1004.62
2023-01-30T03:22:29.458Z,1004.56
2023-01-30T03:23:29.451Z,1004.56
2023-01-30T03:24:29.442Z,1004.53
2023-01-30T03:25:29.429Z,1004.59
2023-01-30T03:26:29.424Z,1004.57
2023-01-30T03:27:29.408Z,1004.52
2023-01-30T03:28:29.415Z,1004.50
2023-01-30T03:29:29.394Z,1004.50
2023-01-30T03:30:29.378Z,1004.51
2023-01-30T03:31:29.465Z,1004.45
2023-01-30T03:32:29.357Z,1004.40
2023-01-30T03:33:29.340Z,1004.43
2023-01-30T03:34:29.338Z,1004.40
2023-01-30T03:35:29.315Z,1004.50
2023-01-30T03:36:29.303Z,1004.47
2023-01-30T03:37:29.295Z,1004.37
2023-01-30T03:38:29.283Z,1004.33
2023-01-30T03:39:29.294Z,1004.39
2023-01-30T03:40:29.267Z,1004.31
2023-01-30T03:41:29.251Z,1004.13
2023-01-30T03:42:29.246Z,1004.26
2023-01-30T03:43:29.230Z,1004.19
2023-01-30T03:44:29.278Z,1004.26
2023-01-30T03:45:29.221Z,1004.16
2023-01-30T03:46:29.270Z,1004.10
2023-01-30T03:47:29.188Z,1004.10
2023-01-30T03:48:29.183Z,1004.10
2023-01-30T03:49:29.179Z,1004.10
2023-01-30T03:50:29.163Z,1004.06
2023-01-30T03:51:29.147Z,1004.05
2023-01-30T03:52:29.155Z,1003.97
2023-01-30T03:53:29.131Z,1003.94
2023-01-30T03:54:29.118Z,1003.80
2023-01-30T03:55:29.104Z,1003.93
2023-01-30T03:56:29.101Z,1003.91
2023-01-30T03:57:29.089Z,1003.81
2023-01-30T03:58:29.092Z,1003.73
2023-01-30T03:59:29.079Z,1003.77
2023-01-30T04:00:29.078Z,1003.77
2023-01-30T04:01:29.068Z,1003.75
2023-01-30T04:02:29.061Z,1003.69
2023-01-30T04:03:29.022Z,1003.70
2023-01-30T04:04:29.011Z,1003.75
2023-01-30T04:05:28.993Z,1003.62
2023-01-30T04:06:29.020Z,1003.70
2023-01-30T04:07:29.043Z,1003.65
2023-01-30T04:08:28.969Z,1003.61
2023-01-30T04:09:28.964Z,1003.59
2023-01-30T04:10:28.978Z,1003.63
2023-01-30T04:11:28.937Z,1003.67
2023-01-30T04:12:28.931Z,1003.52
2023-01-30T04:13:28.930Z,1003.53
2023-01-30T04:14:28.906Z,1003.55
2023-01-30T04:15:28.913Z,1003.49
2023-01-30T04:16:28.964Z,1003.51
2023-01-30T04:17:28.877Z,1003.49
2023-01-30T04:18:28.870Z,1003.45
2023-01-30T04:19:28.855Z,1003.52
2023-01-30T04:20:28.836Z,1003.51
2023-01-30T04:21:28.836Z,1003.48
2023-01-30T04:22:28.863Z,1003.58
2023-01-30T04:23:28.814Z,1003.58
2023-01-30T04:24:28.803Z,1003.50
2023-01-30T04:25:28.783Z,1003.57
2023-01-30T04:26:28.823Z,1003.56
2023-01-30T04:27:28.784Z,1003.41
2023-01-30T04:28:28.770Z,1003.36
2023-01-30T04:29:28.740Z,1003.38
2023-01-30T04:30:28.758Z,1003.38
2023-01-30T04:31:28.798Z,1003.34
2023-01-30T04:32:28.734Z,1003.38
2023-01-30T04:33:28.716Z,1003.30
2023-01-30T04:34:28.689Z,1003.37
2023-01-30T04:35:28.698Z,1003.45
2023-01-30T04:36:28.670Z,1003.39
2023-01-30T04:37:28.659Z,1003.37
2023-01-30T04:38:28.654Z,1003.32
2023-01-30T04:39:28.643Z,1003.26
2023-01-30T04:40:28.623Z,1003.25
2023-01-30T04:41:28.617Z,1003.28
2023-01-30T04:42:28.619Z,1003.23
2023-01-30T04:43:28.597Z,1003.17
2023-01-30T04:44:28.587Z,1003.16
2023-01-30T04:45:29.358Z,1003.18
2023-01-30T04:46:28.563Z,1003.15
2023-01-30T04:47:28.571Z,1003.15
2023-01-30T04:48:28.567Z,1003.16
2023-01-30T04:49:28.545Z,1003.16
2023-01-30T04:50:28.524Z,1003.10
2023-01-30T04:51:28.508Z,1003.12
2023-01-30T04:52:28.514Z,1003.15
2023-01-30T04:53:28.490Z,1003.00
2023-01-30T04:54:28.484Z,1003.11
2023-01-30T04:55:28.496Z,1003.05
2023-01-30T04:56:28.476Z,1003.11
2023-01-30T04:57:28.446Z,1003.21
2023-01-30T04:58:28.452Z,1003.16
2023-01-30T04:59:28.435Z,1002.97
2023-01-30T05:00:28.518Z,1003.03
2023-01-30T05:01:28.402Z,1002.98
2023-01-30T05:02:28.419Z,1003.03
2023-01-30T05:03:28.387Z,1003.06
2023-01-30T05:04:28.438Z,1003.00
2023-01-30T05:05:28.384Z,1002.88
2023-01-30T05:06:28.360Z,1002.91
2023-01-30T05:07:28.351Z,1003.01
2023-01-30T05:08:28.332Z,1002.97
2023-01-30T05:09:28.331Z,1002.87
2023-01-30T05:10:28.310Z,1002.87
2023-01-30T05:11:28.299Z,1002.88
2023-01-30T05:12:28.290Z,1002.89
2023-01-30T05:13:28.291Z,1002.82
2023-01-30T05:14:28.266Z,1002.76
2023-01-30T05:15:28.279Z,1002.86
2023-01-30T05:16:28.262Z,1002.77
2023-01-30T05:17:28.279Z,1002.84
2023-01-30T05:18:28.219Z,1002.74
2023-01-30T05:19:28.219Z,1002.75
2023-01-30T05:20:28.218Z,1002.76
2023-01-30T05:21:28.209Z,1002.68
2023-01-30T05:22:28.180Z,1002.71
2023-01-30T05:23:28.176Z,1002.71
2023-01-30T05:24:28.156Z,1002.64
2023-01-30T05:25:28.158Z,1002.64
2023-01-30T05:26:28.172Z,1002.54
2023-01-30T05:27:28.128Z,1002.60
2023-01-30T05:28:28.120Z,1002.67
2023-01-30T05:29:28.120Z,1002.67
2023-01-30T05:30:28.115Z,1002.62
2023-01-30T05:31:28.087Z,1002.57
2023-01-30T05:32:28.092Z,1002.64
2023-01-30T05:33:28.074Z,1002.52
2023-01-30T05:34:28.069Z,1002.48
2023-01-30T05:35:28.055Z,1002.50
2023-01-30T05:36:28.066Z,1002.49
2023-01-30T05:37:28.016Z,1002.41
2023-01-30T05:38:28.031Z,1002.42
2023-01-30T05:39:28.011Z,1002.42
2023-01-30T05:40:28.000Z,1002.37
2023-01-30T05:41:27.982Z,1002.38
2023-01-30T05:42:27.969Z,1002.37
2023-01-30T05:43:27.952Z,1002.32
2023-01-30T05:44:27.965Z,1002.31
2023-01-30T05:45:27.935Z,1002.24
2023-01-30T05:46:27.998Z,1002.40
2023-01-30T05:47:27.923Z,1002.29
2023-01-30T05:48:27.914Z,1002.20
2023-01-30T05:49:27.902Z,1002.19
2023-01-30T05:50:27.884Z,1002.25
2023-01-30T05:51:27.887Z,1002.29
2023-01-30T05:52:27.876Z,1002.25
2023-01-30T05:53:27.857Z,1002.14
2023-01-30T05:54:27.861Z,1002.14
2023-01-30T05:55:27.833Z,1002.11
2023-01-30T05:56:27.818Z,1002.05
2023-01-30T05:57:27.809Z,1002.02
2023-01-30T05:58:27.794Z,1002.09
2023-01-30T05:59:27.822Z,1002.09
2023-01-30T06:00:27.783Z,1002.02
2023-01-30T06:01:27.771Z,1002.03
2023-01-30T06:02:27.800Z,1001.98
2023-01-30T06:03:27.757Z,1002.04
2023-01-30T06:04:27.741Z,1002.03
2023-01-30T06:05:27.746Z,1001.99
2023-01-30T06:06:27.718Z,1001.97
2023-01-30T06:07:27.716Z,1002.02
2023-01-30T06:08:27.733Z,1001.95
2023-01-30T06:09:27.690Z,1001.98
2023-01-30T06:10:27.686Z,1001.95
2023-01-30T06:11:27.672Z,1001.92
2023-01-30T06:12:27.662Z,1001.92
2023-01-30T06:13:27.646Z,1001.91
2023-01-30T06:14:27.635Z,1001.89
2023-01-30T06:15:27.629Z,1001.87
2023-01-30T06:16:27.710Z,1001.85
2023-01-30T06:17:29.769Z,1001.83
2023-01-30T06:18:27.587Z,1001.76
2023-01-30T06:19:27.580Z,1001.71
2023-01-30T06:20:27.585Z,1001.77
2023-01-30T06:21:27.609Z,1001.80
2023-01-30T06:22:27.568Z,1001.85
2023-01-30T06:23:27.542Z,1001.84
2023-01-30T06:24:27.539Z,1001.87
2023-01-30T06:25:27.531Z,1001.81
2023-01-30T06:26:27.572Z,1001.88
2023-01-30T06:27:27.503Z,1001.97
2023-01-30T06:28:27.503Z,1001.77
2023-01-30T06:29:27.469Z,1001.76
2023-01-30T06:30:27.514Z,1001.87
2023-01-30T06:31:27.501Z,1001.89
2023-01-30T06:32:27.437Z,1001.93
2023-01-30T06:33:27.451Z,1001.95
2023-01-30T06:34:27.428Z,1001.92
2023-01-30T06:35:27.418Z,1001.93
2023-01-30T06:36:27.399Z,1001.91
2023-01-30T06:37:27.394Z,1001.94
2023-01-30T06:38:27.396Z,1001.95
2023-01-30T06:39:27.381Z,1002.10
2023-01-30T06:40:27.389Z,1002.03
2023-01-30T06:41:27.344Z,1001.97
2023-01-30T06:42:27.337Z,1001.87
2023-01-30T06:43:27.331Z,1002.00
2023-01-30T06:44:27.318Z,1001.97
2023-01-30T06:45:27.314Z,1002.13
2023-01-30T06:46:27.389Z,1001.96
2023-01-30T06:47:27.297Z,1002.05
2023-01-30T06:48:27.288Z,1002.02
2023-01-30T06:49:27.290Z,1001.93
2023-01-30T06:50:27.261Z,1001.97
2023-01-30T06:51:27.272Z,1001.91
2023-01-30T06:52:27.373Z,1001.98
2023-01-30T06:53:27.217Z,1002.00
2023-01-30T06:54:27.255Z,1001.87
2023-01-30T06:55:27.209Z,1002.06
2023-01-30T06:56:27.229Z,1001.79
2023-01-30T06:57:27.183Z,1001.94
2023-01-30T06:58:27.193Z,1001.92
2023-01-30T06:59:27.173Z,1001.85
2023-01-30T07:00:27.147Z,1001.82
2023-01-30T07:01:28.927Z,1001.88
2023-01-30T07:02:27.135Z,1001.88
2023-01-30T07:03:27.120Z,1001.93
2023-01-30T07:04:27.162Z,1001.96
2023-01-30T07:05:27.107Z,1002.01
2023-01-30T07:06:27.100Z,1001.86
2023-01-30T07:07:27.089Z,1001.89
2023-01-30T07:08:27.062Z,1001.89
2023-01-30T07:09:27.058Z,1001.80
2023-01-30T07:10:27.059Z,1001.81
2023-01-30T07:11:27.036Z,1001.92
2023-01-30T07:12:27.037Z,1001.88
2023-01-30T07:13:27.021Z,1001.87
2023-01-30T07:14:26.995Z,1001.86
2023-01-30T07:15:26.997Z,1001.85
2023-01-30T07:16:27.024Z,1001.89
2023-01-30T07:17:26.974Z,1001.72
2023-01-30T07:18:26.960Z,1001.80
2023-01-30T07:19:26.958Z,1001.82
2023-01-30T07:20:26.966Z,1001.74
2023-01-30T07:21:26.924Z,1001.82
2023-01-30T07:22:26.966Z,1001.81
2023-01-30T07:23:26.902Z,1001.77
2023-01-30T07:24:26.891Z,1001.69
2023-01-30T07:25:26.889Z,1001.77
2023-01-30T07:26:26.898Z,1001.71
2023-01-30T07:27:26.870Z,1001.75
2023-01-30T07:28:26.913Z,1001.74
2023-01-30T07:29:26.838Z,1001.55
2023-01-30T07:30:26.896Z,1001.70
2023-01-30T07:31:26.855Z,1001.61
2023-01-30T07:32:26.812Z,1001.56
2023-01-30T07:33:26.800Z,1001.67
2023-01-30T07:34:26.802Z,1001.65
2023-01-30T07:35:26.797Z,1001.66
2023-01-30T07:36:26.773Z,1001.56
2023-01-30T07:37:26.758Z,1001.56
2023-01-30T07:38:26.745Z,1001.57
2023-01-30T07:39:26.740Z,1001.69
2023-01-30T07:40:26.746Z,1001.64
2023-01-30T07:41:26.703Z,1001.76
2023-01-30T07:42:26.707Z,1001.76
2023-01-30T07:43:26.725Z,1001.58
2023-01-30T07:44:26.695Z,1001.76
2023-01-30T07:45:26.676Z,1001.70
2023-01-30T07:46:26.651Z,1001.71
2023-01-30T07:47:26.639Z,1001.74
2023-01-30T07:48:26.647Z,1001.80
2023-01-30T07:49:26.642Z,1001.74
2023-01-30T07:50:26.646Z,1001.81
2023-01-30T07:51:26.620Z,1001.74
2023-01-30T07:52:26.607Z,1001.80
2023-01-30T07:53:26.590Z,1001.74
2023-01-30T07:54:26.579Z,1001.65
2023-01-30T07:55:26.560Z,1001.86
2023-01-30T07:56:26.546Z,1001.82
2023-01-30T07:57:26.561Z,1001.86
2023-01-30T07:58:26.534Z,1001.80
2023-01-30T07:59:26.523Z,1001.70
2023-01-30T08:00:26.526Z,1001.86
2023-01-30T08:01:26.582Z,1001.81
2023-01-30T08:02:26.491Z,1001.86
2023-01-30T08:03:26.497Z,1001.75
2023-01-30T08:04:26.524Z,1001.83
2023-01-30T08:05:26.467Z,1001.80
2023-01-30T08:06:26.455Z,1001.75
2023-01-30T08:07:26.437Z,1001.67
2023-01-30T08:08:26.417Z,1001.80
2023-01-30T08:09:26.440Z,1001.75
2023-01-30T08:10:26.402Z,1001.79
2023-01-30T08:11:26.382Z,1001.83
2023-01-30T08:12:26.400Z,1001.77
2023-01-30T08:13:26.375Z,1001.79
2023-01-30T08:14:26.350Z,1001.76
2023-01-30T08:15:26.365Z,1001.77
2023-01-30T08:16:26.424Z,1001.88
2023-01-30T08:17:26.367Z,1001.77
2023-01-30T08:18:26.323Z,1001.69
2023-01-30T08:19:26.293Z,1001.82
2023-01-30T08:20:26.304Z,1001.83
2023-01-30T08:21:26.286Z,1001.79
2023-01-30T08:22:26.265Z,1001.73
2023-01-30T08:23:26.265Z,1001.78
2023-01-30T08:24:26.243Z,1001.80
2023-01-30T08:25:26.250Z,1001.75
2023-01-30T08:26:26.246Z,1001.78
2023-01-30T08:27:26.215Z,1001.80
2023-01-30T08:28:26.211Z,1001.74
2023-01-30T08:29:26.211Z,1001.75
2023-01-30T08:30:26.207Z,1001.89
2023-01-30T08:31:26.205Z,1001.85
2023-01-30T08:32:26.181Z,1001.86
2023-01-30T08:33:26.144Z,1001.88
2023-01-30T08:34:26.139Z,1001.80
2023-01-30T08:35:26.127Z,1001.80
2023-01-30T08:36:26.131Z,1001.79
2023-01-30T08:37:26.101Z,1001.91
2023-01-30T08:38:26.099Z,1001.93
2023-01-30T08:39:26.080Z,1001.93
2023-01-30T08:40:26.084Z,1001.83
2023-01-30T08:41:26.063Z,1001.89
2023-01-30T08:42:26.055Z,1001.85
2023-01-30T08:43:26.090Z,1001.85
2023-01-30T08:44:26.033Z,1001.80
2023-01-30T08:45:26.027Z,1001.85
2023-01-30T08:46:26.035Z,1001.86
2023-01-30T08:47:26.007Z,1001.81
2023-01-30T08:48:28.174Z,1001.89
2023-01-30T08:49:25.997Z,1001.85
2023-01-30T08:50:25.997Z,1001.76
2023-01-30T08:51:25.965Z,1001.78
2023-01-30T08:52:25.940Z,1001.69
2023-01-30T08:53:25.938Z,1001.69
2023-01-30T08:54:25.928Z,1001.69
2023-01-30T08:55:25.928Z,1001.71
2023-01-30T08:56:25.906Z,1001.75
2023-01-30T08:57:25.896Z,1001.70
2023-01-30T08:58:25.888Z,1001.76
2023-01-30T08:59:25.888Z,1001.87
2023-01-30T09:00:25.887Z,1001.91
2023-01-30T09:01:25.918Z,1001.83
2023-01-30T09:02:25.844Z,1001.71
2023-01-30T09:03:25.841Z,1001.80
2023-01-30T09:04:25.845Z,1001.79
2023-01-30T09:05:25.849Z,1001.79
2023-01-30T09:06:26.349Z,1001.75
2023-01-30T09:07:25.781Z,1001.67
2023-01-30T09:08:25.789Z,1001.72
2023-01-30T09:09:25.758Z,1001.75
2023-01-30T09:10:25.817Z,1001.81
2023-01-30T09:11:25.755Z,1001.82
2023-01-30T09:12:25.731Z,1001.89
2023-01-30T09:13:25.719Z,1001.78
2023-01-30T09:14:25.716Z,1001.82
2023-01-30T09:15:25.713Z,1001.88
2023-01-30T09:16:25.738Z,1001.87
2023-01-30T09:17:25.678Z,1001.85
2023-01-30T09:18:25.696Z,1001.94
2023-01-30T09:19:25.652Z,1001.79
2023-01-30T09:20:25.806Z,1001.93
2023-01-30T09:21:25.673Z,1001.77
2023-01-30T09:22:26.322Z,1001.84
2023-01-30T09:23:25.634Z,1001.90
2023-01-30T09:24:25.604Z,1002.03
2023-01-30T09:25:25.597Z,1002.07
2023-01-30T09:26:25.668Z,1002.02
2023-01-30T09:27:25.584Z,1002.00
2023-01-30T09:28:25.575Z,1002.00
2023-01-30T09:29:25.562Z,1001.87
2023-01-30T09:30:25.615Z,1001.95
2023-01-30T09:31:25.667Z,1002.03
2023-01-30T09:32:25.524Z,1002.06
2023-01-30T09:33:25.505Z,1002.06
2023-01-30T09:34:25.499Z,1002.06
2023-01-30T09:35:25.496Z,1002.00
2023-01-30T09:36:25.498Z,1001.77
2023-01-30T09:37:25.504Z,1002.07
2023-01-30T09:38:25.456Z,1001.96
2023-01-30T09:39:25.449Z,1002.01
2023-01-30T09:40:25.488Z,1001.96
2023-01-30T09:41:25.511Z,1001.94
2023-01-30T09:42:25.409Z,1002.08
2023-01-30T09:43:25.406Z,1001.99
2023-01-30T09:44:25.384Z,1002.09
2023-01-30T09:45:25.395Z,1002.05
2023-01-30T09:46:25.440Z,1002.16
2023-01-30T09:47:25.370Z,1001.94
2023-01-30T09:48:25.358Z,1002.10
2023-01-30T09:49:25.353Z,1001.94
2023-01-30T09:50:25.340Z,1002.03
2023-01-30T09:51:25.311Z,1002.01
2023-01-30T09:52:25.330Z,1002.04
2023-01-30T09:53:25.307Z,1002.07
2023-01-30T09:54:25.289Z,1002.07
2023-01-30T09:55:25.291Z,1002.10
2023-01-30T09:56:25.269Z,1002.01
2023-01-30T09:57:25.244Z,1002.04
2023-01-30T09:58:25.234Z,1002.13
2023-01-30T09:59:25.244Z,1002.01
2023-01-30T10:00:25.230Z,1002.09
2023-01-30T10:01:25.206Z,1001.99
2023-01-30T10:02:25.215Z,1002.03
2023-01-30T10:03:25.239Z,1001.97
2023-01-30T10:04:25.234Z,1002.01
2023-01-30T10:05:25.167Z,1002.02
2023-01-30T10:06:25.151Z,1002.02
2023-01-30T10:07:25.197Z,1002.02
2023-01-30T10:08:25.163Z,1002.04
2023-01-30T10:09:25.475Z,1002.03
2023-01-30T10:10:25.122Z,1001.98
2023-01-30T10:11:25.099Z,1002.02
2023-01-30T10:12:25.102Z,1002.03
2023-01-30T10:13:25.089Z,1002.06
2023-01-30T10:14:25.125Z,1001.98
2023-01-30T10:15:25.064Z,1002.12
2023-01-30T10:16:25.046Z,1001.91
2023-01-30T10:17:25.047Z,1001.87
2023-01-30T10:18:25.041Z,1002.01
2023-01-30T10:19:35.376Z,1001.93
2023-01-30T10:20:26.087Z,1001.79
2023-01-30T10:21:25.011Z,1002.01
2023-01-30T10:22:24.995Z,1002.00
2023-01-30T10:23:24.972Z,1001.93
2023-01-30T10:24:24.986Z,1002.06
2023-01-30T10:25:24.968Z,1001.95
2023-01-30T10:26:25.023Z,1001.94
2023-01-30T10:27:24.938Z,1001.95
2023-01-30T10:28:24.919Z,1001.93
2023-01-30T10:29:24.898Z,1001.88
2023-01-30T10:30:25.125Z,1001.94
2023-01-30T10:31:24.941Z,1001.91
2023-01-30T10:32:24.871Z,1002.00
2023-01-30T10:33:24.873Z,1001.88
2023-01-30T10:34:24.851Z,1001.83
2023-01-30T10:35:26.188Z,1001.88
2023-01-30T10:36:24.831Z,1001.88
2023-01-30T10:37:24.834Z,1001.83
2023-01-30T10:38:24.877Z,1001.80
2023-01-30T10:39:24.799Z,1001.88
2023-01-30T10:40:24.832Z,1001.82
2023-01-30T10:41:24.791Z,1001.85
2023-01-30T10:42:24.778Z,1001.82
2023-01-30T10:43:24.753Z,1001.81
2023-01-30T10:44:24.752Z,1001.79
2023-01-30T10:45:24.730Z,1001.75
2023-01-30T10:46:24.761Z,1001.68
2023-01-30T10:47:26.453Z,1001.82
2023-01-30T10:48:34.456Z,1001.81
2023-01-30T10:49:25.684Z,1001.82
2023-01-30T10:50:24.679Z,1001.83
2023-01-30T10:51:24.698Z,1001.76
2023-01-30T10:52:24.677Z,1001.76
2023-01-30T10:53:24.670Z,1001.65
2023-01-30T10:54:24.644Z,1001.58
2023-01-30T10:55:36.465Z,1001.61
2023-01-30T10:56:25.647Z,1001.59
2023-01-30T10:57:24.609Z,1001.74
2023-01-30T10:58:24.616Z,1001.64
2023-01-30T10:59:24.609Z,1001.70
2023-01-30T11:00:24.571Z,1001.68
2023-01-30T11:01:24.611Z,1001.73
2023-01-30T11:02:24.620Z,1001.63
2023-01-30T11:03:24.563Z,1001.66
2023-01-30T11:04:24.536Z,1001.67
2023-01-30T11:05:24.553Z,1001.67
2023-01-30T11:06:24.514Z,1001.63
2023-01-30T11:07:24.539Z,1001.55
2023-01-30T11:08:24.488Z,1001.55
2023-01-30T11:09:24.750Z,1001.56
2023-01-30T11:10:24.481Z,1001.55
2023-01-30T11:11:24.473Z,1001.41
2023-01-30T11:12:24.480Z,1001.47
2023-01-30T11:13:24.433Z,1001.50
2023-01-30T11:14:24.437Z,1001.46
2023-01-30T11:15:24.437Z,1001.37
2023-01-30T11:16:24.471Z,1001.42
2023-01-30T11:17:24.394Z,1001.37
2023-01-30T11:19:25.381Z,1001.35
2023-01-30T11:20:24.354Z,1001.33
2023-01-30T11:21:27.073Z,1001.40
2023-01-30T11:22:25.346Z,1001.33
2023-01-30T11:23:24.339Z,1001.30
2023-01-30T11:24:24.330Z,1001.21
2023-01-30T11:25:24.316Z,1001.23
2023-01-30T11:26:29.419Z,1001.23
2023-01-30T11:27:25.287Z,1001.23
2023-01-30T11:28:24.288Z,1001.14
2023-01-30T11:29:24.276Z,1001.07
2023-01-30T11:30:24.253Z,1001.08
2023-01-30T11:31:39.971Z,1001.32
2023-01-30T11:32:25.398Z,1001.26
2023-01-30T11:33:24.233Z,1001.07
2023-01-30T11:34:24.258Z,1001.01
2023-01-30T11:35:24.197Z,1000.96
2023-01-30T11:36:24.198Z,1000.98
2023-01-30T11:37:24.191Z,1000.95
2023-01-30T11:38:24.178Z,1000.91
2023-01-30T11:39:24.151Z,1000.74
2023-01-30T11:40:24.157Z,1000.97
2023-01-30T11:41:24.132Z,1000.84
2023-01-30T11:42:24.133Z,1000.90
2023-01-30T11:43:24.112Z,1000.93
2023-01-30T11:44:24.122Z,1000.91
2023-01-30T11:45:24.109Z,1000.82
2023-01-30T11:46:24.086Z,1000.97
2023-01-30T11:47:24.089Z,1000.91
2023-01-30T11:48:33.129Z,1000.94
2023-01-30T11:49:46.407Z,1000.90
2023-01-30T11:50:32.084Z,1000.91
2023-01-30T11:51:25.041Z,1000.87
2023-01-30T11:52:24.016Z,1000.98
2023-01-30T11:53:24.029Z,1001.02
2023-01-30T11:54:24.014Z,1000.95
2023-01-30T11:55:24.026Z,1000.90
2023-01-30T11:56:23.992Z,1000.99
2023-01-30T11:57:23.961Z,1000.88
2023-01-30T11:58:23.954Z,1000.79
2023-01-30T11:59:23.948Z,1000.71
2023-01-30T12:00:23.999Z,1000.76
2023-01-30T12:01:23.933Z,1000.74
2023-01-30T12:02:24.030Z,1000.70
2023-01-30T12:03:23.957Z,1000.71
2023-01-30T12:04:23.884Z,1000.58
2023-01-30T12:05:23.873Z,1000.62
2023-01-30T12:06:23.884Z,1000.76